createdAt,value
2023-03-06T00:01:55.305Z,-3.82
2023-03-06T00:05:23.720Z,-3.86
2023-03-06T00:08:51.137Z,-3.88
2023-03-06T00:12:18.318Z,-3.92
2023-03-06T00:15:45.839Z,-3.94
2023-03-06T00:19:13.080Z,-3.96
2023-03-06T00:22:40.729Z,-3.97
2023-03-06T00:26:09.704Z,-3.98
2023-03-06T00:29:37.552Z,-3.98
2023-03-06T00:33:04.963Z,-3.97
2023-03-06T00:36:32.162Z,-3.97
2023-03-06T00:39:59.440Z,-3.97
2023-03-06T00:43:26.773Z,-3.98
2023-03-06T00:46:53.916Z,-4.00
2023-03-06T00:50:21.549Z,-4.03
2023-03-06T00:53:49.018Z,-4.06
2023-03-06T00:57:16.540Z,-4.08
2023-03-06T01:00:44.034Z,-4.08
2023-03-06T01:04:12.113Z,-4.09
2023-03-06T01:07:39.302Z,-4.09
2023-03-06T01:11:06.938Z,-4.07
2023-03-06T01:14:34.090Z,-4.06
2023-03-06T01:18:01.386Z,-4.03
2023-03-06T01:21:28.678Z,-3.98
2023-03-06T01:24:56.041Z,-3.92
2023-03-06T01:28:23.385Z,-3.85
2023-03-06T01:31:50.602Z,-3.76
2023-03-06T01:35:17.981Z,-3.67
2023-03-06T01:38:45.207Z,-3.60
2023-03-06T01:42:12.307Z,-3.55
2023-03-06T01:46:19.336Z,-3.50
2023-03-06T01:49:46.498Z,-3.47
2023-03-06T01:53:14.405Z,-3.45
2023-03-06T01:56:45.602Z,-3.45
2023-03-06T02:00:18.672Z,-3.46
2023-03-06T02:03:47.452Z,-3.47
2023-03-06T02:07:15.551Z,-3.47
2023-03-06T02:10:43.809Z,-3.46
2023-03-06T02:14:12.025Z,-3.44
2023-03-06T02:17:39.798Z,-3.42
2023-03-06T02:21:09.965Z,-3.38
2023-03-06T02:24:46.891Z,-3.33
2023-03-06T02:28:17.218Z,-3.27
2023-03-06T02:31:44.508Z,-3.18
2023-03-06T02:35:21.429Z,-3.11
2023-03-06T02:38:51.213Z,-3.04
2023-03-06T02:42:24.777Z,-2.98
2023-03-06T02:45:54.720Z,-2.91
2023-03-06T02:49:21.927Z,-2.84
2023-03-06T02:52:49.208Z,-2.77
2023-03-06T02:56:16.357Z,-2.70
2023-03-06T02:59:43.835Z,-2.65
2023-03-06T03:03:11.505Z,-2.61
2023-03-06T03:06:38.893Z,-2.56
2023-03-06T03:10:08.008Z,-2.50
2023-03-06T03:13:35.409Z,-2.47
2023-03-06T03:17:03.752Z,-2.41
2023-03-06T03:20:30.980Z,-2.35
2023-03-06T03:23:58.049Z,-2.30
2023-03-06T03:27:27.574Z,-2.25
2023-03-06T03:30:55.089Z,-2.21
2023-03-06T03:34:22.604Z,-2.16
2023-03-06T03:37:49.682Z,-2.10
2023-03-06T03:41:17.041Z,-2.05
2023-03-06T03:44:44.595Z,-2.01
2023-03-06T03:48:12.118Z,-1.97
2023-03-06T03:51:39.933Z,-1.91
2023-03-06T03:55:09.285Z,-1.83
2023-03-06T03:58:37.594Z,-1.76
2023-03-06T04:02:05.691Z,-1.69
2023-03-06T04:05:37.228Z,-1.62
2023-03-06T04:09:06.879Z,-1.56
2023-03-06T04:12:35.083Z,-1.51
2023-03-06T04:16:02.629Z,-1.46
2023-03-06T04:19:31.075Z,-1.40
2023-03-06T04:22:59.000Z,-1.35
2023-03-06T04:26:26.619Z,-1.30
2023-03-06T04:29:56.450Z,-1.26
2023-03-06T04:33:24.031Z,-1.20
2023-03-06T04:36:51.424Z,-1.15
2023-03-06T04:40:22.852Z,-1.13
2023-03-06T04:43:50.430Z,-1.11
2023-03-06T04:47:19.218Z,-1.09
2023-03-06T04:50:47.097Z,-1.08
2023-03-06T04:54:14.554Z,-1.07
2023-03-06T04:57:43.456Z,-1.04
2023-03-06T05:01:10.895Z,-1.03
2023-03-06T05:04:38.487Z,-1.02
2023-03-06T05:08:06.103Z,-1.00
2023-03-06T05:11:33.218Z,-0.98
2023-03-06T05:15:00.473Z,-0.96
2023-03-06T05:18:28.044Z,-0.93
2023-03-06T05:21:55.158Z,-0.91
2023-03-06T05:25:22.877Z,-0.90
2023-03-06T05:28:50.002Z,-0.89
2023-03-06T05:32:18.582Z,-0.89
2023-03-06T05:35:49.588Z,-0.89
2023-03-06T05:39:16.934Z,-0.91
2023-03-06T05:42:44.206Z,-0.93
2023-03-06T05:46:12.643Z,-0.96
2023-03-06T05:49:40.043Z,-0.96
2023-03-06T05:53:07.509Z,-0.96
2023-03-06T05:56:34.610Z,-0.95
2023-03-06T06:00:01.686Z,-0.94
2023-03-06T06:03:29.106Z,-0.91
2023-03-06T06:06:57.375Z,-0.89
2023-03-06T06:10:25.040Z,-0.89
2023-03-06T06:13:52.183Z,-0.87
2023-03-06T06:17:19.319Z,-0.86
2023-03-06T06:20:46.578Z,-0.85
2023-03-06T06:24:13.693Z,-0.82
2023-03-06T06:27:40.893Z,-0.81
2023-03-06T06:31:12.463Z,-0.77
2023-03-06T06:34:39.657Z,-0.74
2023-03-06T06:38:06.746Z,-0.70
2023-03-06T06:41:53.080Z,-0.66
2023-03-06T06:45:21.289Z,-0.61
2023-03-06T06:48:52.469Z,-0.57
2023-03-06T06:52:20.097Z,-0.52
2023-03-06T06:55:47.364Z,-0.46
2023-03-06T06:59:16.988Z,-0.38
2023-03-06T07:02:48.970Z,-0.32
2023-03-06T07:06:16.238Z,-0.26
2023-03-06T07:09:43.747Z,-0.21
2023-03-06T07:13:11.076Z,-0.15
2023-03-06T07:16:38.069Z,-0.06
2023-03-06T07:20:07.122Z,0.00
2023-03-06T07:23:34.347Z,0.04
2023-03-06T07:27:01.429Z,0.08
2023-03-06T07:30:28.589Z,0.14
2023-03-06T07:33:56.952Z,0.20
2023-03-06T07:37:24.550Z,0.26
2023-03-06T07:40:55.165Z,0.30
2023-03-06T07:44:22.288Z,0.40
2023-03-06T07:47:50.570Z,0.50
2023-03-06T07:51:19.853Z,0.59
2023-03-06T07:54:47.017Z,0.68
2023-03-06T07:58:14.129Z,0.76
2023-03-06T08:01:41.266Z,0.86
2023-03-06T08:05:10.018Z,0.92
2023-03-06T08:08:37.756Z,0.97
2023-03-06T08:12:04.976Z,1.06
2023-03-06T08:15:32.156Z,1.18
2023-03-06T08:18:59.691Z,1.31
2023-03-06T08:22:26.971Z,1.39
2023-03-06T08:26:00.202Z,1.44
2023-03-06T08:29:27.426Z,1.48
2023-03-06T08:32:54.496Z,1.52
2023-03-06T08:36:21.541Z,1.55
2023-03-06T08:39:48.832Z,1.59
2023-03-06T08:43:15.890Z,1.67
2023-03-06T08:46:43.020Z,1.76
2023-03-06T08:50:12.045Z,1.82
2023-03-06T08:53:43.205Z,1.89
2023-03-06T08:57:11.095Z,1.97
2023-03-06T09:00:38.902Z,2.00
2023-03-06T09:04:08.887Z,2.05
2023-03-06T09:07:36.570Z,2.14
2023-03-06T09:11:03.716Z,2.21
2023-03-06T09:14:32.031Z,2.29
2023-03-06T09:17:59.485Z,2.37
2023-03-06T09:21:28.615Z,2.37
2023-03-06T09:24:55.717Z,2.36
2023-03-06T09:28:23.198Z,2.33
2023-03-06T09:31:50.216Z,2.44
2023-03-06T09:35:18.859Z,2.60
2023-03-06T09:38:49.803Z,2.79
2023-03-06T09:42:21.314Z,2.95
2023-03-06T09:45:50.286Z,3.18
2023-03-06T09:49:38.360Z,3.46
2023-03-06T09:53:32.768Z,3.74
2023-03-06T09:56:59.989Z,4.14
2023-03-06T10:00:33.913Z,4.58
2023-03-06T10:04:12.897Z,5.06
2023-03-06T10:07:47.813Z,5.52
2023-03-06T10:11:19.615Z,5.98
2023-03-06T10:14:51.529Z,6.39
2023-03-06T10:18:19.117Z,6.77
2023-03-06T10:21:54.564Z,7.01
2023-03-06T10:25:27.982Z,7.18
2023-03-06T10:29:06.052Z,7.30
2023-03-06T10:32:48.581Z,7.39
2023-03-06T10:36:18.715Z,7.49
2023-03-06T10:39:45.823Z,7.60
2023-03-06T10:43:14.381Z,7.66
2023-03-06T10:46:43.566Z,7.70
2023-03-06T10:50:25.066Z,7.76
2023-03-06T10:53:58.825Z,7.75
2023-03-06T10:57:30.626Z,7.68
2023-03-06T11:01:07.977Z,7.57
2023-03-06T11:04:37.684Z,7.48
2023-03-06T11:08:05.144Z,7.39
2023-03-06T11:11:37.749Z,7.31
2023-03-06T11:15:20.965Z,7.27
2023-03-06T11:18:59.576Z,7.30
2023-03-06T11:22:26.928Z,7.23
2023-03-06T11:25:58.873Z,7.14
2023-03-06T11:29:38.527Z,7.03
2023-03-06T11:33:13.438Z,6.88
2023-03-06T11:36:45.221Z,6.69
2023-03-06T11:40:20.576Z,6.51
2023-03-06T11:43:57.905Z,6.35
2023-03-06T11:47:30.744Z,6.22
2023-03-06T11:51:04.305Z,6.08
2023-03-06T11:54:33.775Z,5.88
2023-03-06T11:58:14.641Z,5.76
2023-03-06T12:01:49.377Z,5.62
2023-03-06T12:05:34.754Z,5.44
2023-03-06T12:09:29.962Z,5.23
2023-03-06T12:13:28.144Z,5.08
2023-03-06T12:17:19.728Z,4.93
2023-03-06T12:20:58.004Z,4.80
2023-03-06T12:24:42.348Z,4.70
2023-03-06T12:28:28.910Z,4.65
2023-03-06T12:32:11.436Z,4.67
2023-03-06T12:36:04.426Z,4.67
2023-03-06T12:39:49.498Z,4.61
2023-03-06T12:43:50.181Z,4.55
2023-03-06T12:47:19.560Z,4.41
2023-03-06T12:50:47.504Z,4.29
2023-03-06T12:54:16.105Z,4.22
2023-03-06T12:57:43.454Z,4.17
2023-03-06T13:01:15.187Z,4.11
2023-03-06T13:05:01.432Z,4.06
2023-03-06T13:08:57.366Z,4.00
2023-03-06T13:12:54.416Z,4.00
2023-03-06T13:16:30.259Z,3.98
2023-03-06T13:20:29.483Z,3.97
2023-03-06T13:24:07.082Z,3.94
2023-03-06T13:28:01.106Z,3.90
2023-03-06T13:31:50.571Z,3.84
2023-03-06T13:35:52.878Z,3.78
2023-03-06T13:39:20.425Z,3.78
2023-03-06T13:43:14.890Z,3.79
2023-03-06T13:46:42.225Z,3.82
2023-03-06T13:50:27.989Z,3.83
2023-03-06T13:54:30.557Z,3.84
2023-03-06T13:58:12.249Z,3.84
2023-03-06T14:01:57.923Z,3.78
2023-03-06T14:05:26.979Z,3.74
2023-03-06T14:08:54.273Z,3.78
2023-03-06T14:12:27.019Z,3.83
2023-03-06T14:15:56.288Z,3.71
2023-03-06T14:19:23.843Z,3.48
2023-03-06T14:22:50.921Z,3.30
2023-03-06T14:26:20.325Z,3.05
2023-03-06T14:29:48.746Z,2.85
2023-03-06T14:33:25.466Z,2.80
2023-03-06T14:36:55.042Z,2.67
2023-03-06T14:40:27.087Z,2.51
2023-03-06T14:43:54.621Z,2.44
2023-03-06T14:47:27.220Z,2.43
2023-03-06T14:50:56.347Z,2.35
2023-03-06T14:54:27.405Z,2.31
2023-03-06T14:57:59.450Z,2.28
2023-03-06T15:01:32.381Z,2.18
2023-03-06T15:05:05.433Z,2.14
2023-03-06T15:08:36.992Z,2.10
2023-03-06T15:12:07.131Z,2.11
2023-03-06T15:15:34.969Z,2.15
2023-03-06T15:19:02.934Z,2.19
2023-03-06T15:22:37.908Z,2.12
2023-03-06T15:26:19.600Z,2.09
2023-03-06T15:29:46.995Z,2.02
2023-03-06T15:33:27.014Z,1.95
2023-03-06T15:36:56.537Z,1.93
2023-03-06T15:40:26.431Z,1.92
2023-03-06T15:43:56.033Z,1.90
2023-03-06T15:47:22.061Z,1.85
2023-03-06T15:50:49.290Z,1.76
2023-03-06T15:54:16.391Z,1.64
2023-03-06T15:57:51.013Z,1.56
2023-03-06T16:01:19.492Z,1.50
2023-03-06T16:04:47.109Z,1.44
2023-03-06T16:08:15.324Z,1.40
2023-03-06T16:11:45.125Z,1.37
2023-03-06T16:15:20.215Z,1.33
2023-03-06T16:18:47.703Z,1.29
2023-03-06T16:22:15.355Z,1.26
2023-03-06T16:25:45.810Z,1.22
2023-03-06T16:29:18.330Z,1.17
2023-03-06T16:32:46.380Z,1.10
2023-03-06T16:36:19.733Z,1.01
2023-03-06T16:39:46.898Z,0.92
2023-03-06T16:43:16.112Z,0.83
2023-03-06T16:46:47.003Z,0.74
2023-03-06T16:50:24.666Z,0.65
2023-03-06T16:53:52.560Z,0.55
2023-03-06T16:57:20.145Z,0.44
2023-03-06T17:00:47.602Z,0.35
2023-03-06T17:04:15.998Z,0.26
2023-03-06T17:07:43.795Z,0.18
2023-03-06T17:11:11.560Z,0.10
2023-03-06T17:14:38.760Z,0.01
2023-03-06T17:18:06.091Z,-0.09
2023-03-06T17:21:35.479Z,-0.18
2023-03-06T17:25:06.824Z,-0.30
2023-03-06T17:28:34.101Z,-0.41
2023-03-06T17:32:01.488Z,-0.53
2023-03-06T17:35:28.712Z,-0.64
2023-03-06T17:38:59.078Z,-0.75
2023-03-06T17:42:26.303Z,-0.85
2023-03-06T17:45:53.794Z,-0.95
2023-03-06T17:49:23.412Z,-1.04
2023-03-06T17:52:50.544Z,-1.14
2023-03-06T17:56:17.972Z,-1.25
2023-03-06T17:59:48.815Z,-1.34
2023-03-06T18:03:15.949Z,-1.43
2023-03-06T18:06:43.101Z,-1.52
2023-03-06T18:10:11.818Z,-1.62
2023-03-06T18:13:40.900Z,-1.72
2023-03-06T18:17:08.977Z,-1.80
2023-03-06T18:20:36.590Z,-1.89
2023-03-06T18:24:03.774Z,-1.96
2023-03-06T18:27:33.166Z,-2.03
2023-03-06T18:30:58.647Z,-2.10
2023-03-06T18:34:26.189Z,-2.16
2023-03-06T18:37:53.316Z,-2.22
2023-03-06T18:41:22.130Z,-2.27
2023-03-06T18:44:49.725Z,-2.31
2023-03-06T18:48:16.808Z,-2.36
2023-03-06T18:51:44.136Z,-2.41
2023-03-06T18:55:13.055Z,-2.45
2023-03-06T18:58:40.392Z,-2.49
2023-03-06T19:02:08.556Z,-2.50
2023-03-06T19:05:39.236Z,-2.52
2023-03-06T19:09:06.865Z,-2.54
2023-03-06T19:12:35.607Z,-2.55
2023-03-06T19:16:03.347Z,-2.57
2023-03-06T19:19:30.532Z,-2.58
2023-03-06T19:22:57.872Z,-2.60
2023-03-06T19:26:25.377Z,-2.65
2023-03-06T19:29:52.601Z,-2.71
2023-03-06T19:33:20.781Z,-2.78
2023-03-06T19:36:50.697Z,-2.86
2023-03-06T19:40:18.085Z,-2.95
2023-03-06T19:43:50.222Z,-3.02
2023-03-06T19:47:17.516Z,-3.10
2023-03-06T19:50:44.624Z,-3.16
2023-03-06T19:54:13.650Z,-3.22
2023-03-06T19:57:40.800Z,-3.28
2023-03-06T20:01:11.112Z,-3.35
2023-03-06T20:04:38.373Z,-3.41
2023-03-06T20:08:05.982Z,-3.46
2023-03-06T20:11:33.438Z,-3.51
2023-03-06T20:15:00.459Z,-3.56
2023-03-06T20:18:28.001Z,-3.61
2023-03-06T20:21:55.909Z,-3.64
2023-03-06T20:25:23.199Z,-3.67
2023-03-06T20:28:50.379Z,-3.70
2023-03-06T20:32:17.566Z,-3.73
2023-03-06T20:35:45.171Z,-3.76
2023-03-06T20:39:15.226Z,-3.79
2023-03-06T20:42:42.593Z,-3.80
2023-03-06T20:46:11.807Z,-3.82
2023-03-06T20:49:37.791Z,-3.84
2023-03-06T20:53:04.877Z,-3.86
2023-03-06T20:56:33.801Z,-3.89
2023-03-06T21:00:00.857Z,-3.91
2023-03-06T21:03:29.203Z,-3.93
2023-03-06T21:06:56.692Z,-3.95
2023-03-06T21:10:24.013Z,-3.97
2023-03-06T21:13:51.320Z,-3.98
2023-03-06T21:17:19.033Z,-4.00
2023-03-06T21:20:46.225Z,-4.00
2023-03-06T21:24:13.752Z,-4.00
2023-03-06T21:27:41.009Z,-4.00
2023-03-06T21:31:10.502Z,-4.00
2023-03-06T21:34:37.708Z,-4.01
2023-03-06T21:38:04.835Z,-4.03
2023-03-06T21:41:32.414Z,-4.07
2023-03-06T21:44:59.949Z,-4.10
2023-03-06T21:48:27.302Z,-4.12
2023-03-06T21:51:54.969Z,-4.14
2023-03-06T21:55:22.635Z,-4.16
2023-03-06T21:58:49.907Z,-4.18
2023-03-06T22:02:17.495Z,-4.19
2023-03-06T22:05:44.768Z,-4.18
2023-03-06T22:09:13.811Z,-4.13
2023-03-06T22:12:41.471Z,-4.06
2023-03-06T22:16:09.533Z,-3.97
2023-03-06T22:19:37.197Z,-3.87
2023-03-06T22:23:04.433Z,-3.75
2023-03-06T22:26:32.504Z,-3.65
2023-03-06T22:29:59.580Z,-3.58
2023-03-06T22:33:26.871Z,-3.52
2023-03-06T22:36:54.312Z,-3.48
2023-03-06T22:40:21.907Z,-3.45
2023-03-06T22:43:49.689Z,-3.42
2023-03-06T22:47:16.818Z,-3.41
2023-03-06T22:50:44.042Z,-3.38
2023-03-06T22:54:11.473Z,-3.36
2023-03-06T22:57:38.784Z,-3.34
2023-03-06T23:01:12.500Z,-3.33
2023-03-06T23:04:39.967Z,-3.31
2023-03-06T23:08:07.469Z,-3.29
2023-03-06T23:11:34.981Z,-3.27
2023-03-06T23:15:20.677Z,-3.25
2023-03-06T23:19:06.401Z,-3.22
2023-03-06T23:22:52.162Z,-3.21
2023-03-06T23:26:38.010Z,-3.20
2023-03-06T23:30:05.673Z,-3.18
2023-03-06T23:33:32.852Z,-3.15
2023-03-06T23:36:59.925Z,-3.14
2023-03-06T23:40:27.758Z,-3.09
2023-03-06T23:43:55.484Z,-3.05
2023-03-06T23:47:22.664Z,-3.00
2023-03-06T23:50:52.679Z,-2.96
2023-03-06T23:54:19.782Z,-2.94
2023-03-06T23:57:46.847Z,-2.90
